In Rescue
 
Open Full Screen Window  High Contrast Mode
July 24, 2024 6:30 PM EDT
Weather Information
Wind Direction
  ---
Wind Speed
  00 kt (0 mph)
Wind Gust
  00 kt (0 mph)
Altimeter
30.15 in
Visibility
10 SM
Temperature
28° C
82° F
Dewpoint
18° C
64° F
Humidity
55%
1hr Rain Fall
00.00 in.
24hr Rain Fall
00.29 in.
Sky Condition
Clear
VFR

METAR KSYM 242230Z AUTO 00000KT 10SM CLR 28/18 A3015 RMK AO2

FAA Disclaimer: The data displayed is for advisory purposes only and is not to be used for flight planning or operations.